sensor_id;sensor_type;location;lat;lon;timestamp;P1;durP1;ratioP1;P2;durP2;ratioP2
42334;SDS011;27986;42.700;24.178;2022-10-17T00:00:59;4.97;;;1.50;;
42334;SDS011;27986;42.700;24.178;2022-10-17T00:03:24;5.28;;;1.77;;
42334;SDS011;27986;42.700;24.178;2022-10-17T00:05:50;4.60;;;2.00;;
42334;SDS011;27986;42.700;24.178;2022-10-17T00:08:16;4.00;;;1.60;;
42334;SDS011;27986;42.700;24.178;2022-10-17T00:10:42;7.47;;;2.30;;
42334;SDS011;27986;42.700;24.178;2022-10-17T00:13:08;3.22;;;1.77;;
42334;SDS011;27986;42.700;24.178;2022-10-17T00:15:34;4.35;;;1.90;;
42334;SDS011;27986;42.700;24.178;2022-10-17T00:18:00;3.40;;;1.50;;
42334;SDS011;27986;42.700;24.178;2022-10-17T00:20:26;3.63;;;1.60;;
42334;SDS011;27986;42.700;24.178;2022-10-17T00:22:54;3.17;;;2.20;;
42334;SDS011;27986;42.700;24.178;2022-10-17T00:25:20;3.60;;;1.88;;
42334;SDS011;27986;42.700;24.178;2022-10-17T00:27:46;5.00;;;2.25;;
42334;SDS011;27986;42.700;24.178;2022-10-17T00:30:13;4.30;;;2.30;;
42334;SDS011;27986;42.700;24.178;2022-10-17T00:32:39;4.65;;;1.92;;
42334;SDS011;27986;42.700;24.178;2022-10-17T00:35:05;5.22;;;2.53;;
42334;SDS011;27986;42.700;24.178;2022-10-17T00:37:31;4.07;;;2.05;;
42334;SDS011;27986;42.700;24.178;2022-10-17T00:39:57;4.78;;;1.98;;
42334;SDS011;27986;42.700;24.178;2022-10-17T00:42:25;4.57;;;2.13;;
42334;SDS011;27986;42.700;24.178;2022-10-17T00:45:06;5.18;;;2.05;;
42334;SDS011;27986;42.700;24.178;2022-10-17T00:47:44;5.10;;;2.03;;
42334;SDS011;27986;42.700;24.178;2022-10-17T00:50:15;4.22;;;1.92;;
42334;SDS011;27986;42.700;24.178;2022-10-17T00:52:41;4.93;;;2.25;;
42334;SDS011;27986;42.700;24.178;2022-10-17T00:55:10;5.15;;;2.28;;
42334;SDS011;27986;42.700;24.178;2022-10-17T00:57:38;4.65;;;2.00;;
42334;SDS011;27986;42.700;24.178;2022-10-17T01:00:06;3.75;;;1.52;;
42334;SDS011;27986;42.700;24.178;2022-10-17T01:02:34;3.47;;;1.77;;
42334;SDS011;27986;42.700;24.178;2022-10-17T01:05:00;7.97;;;2.45;;
42334;SDS011;27986;42.700;24.178;2022-10-17T01:07:26;8.02;;;2.30;;
42334;SDS011;27986;42.700;24.178;2022-10-17T01:09:53;3.97;;;1.63;;
42334;SDS011;27986;42.700;24.178;2022-10-17T01:12:21;11.68;;;2.33;;
42334;SDS011;27986;42.700;24.178;2022-10-17T01:15:24;4.43;;;2.22;;
42334;SDS011;27986;42.700;24.178;2022-10-17T01:31:14;3.08;;;1.33;;
42334;SDS011;27986;42.700;24.178;2022-10-17T01:33:45;4.82;;;2.05;;
42334;SDS011;27986;42.700;24.178;2022-10-17T01:39:20;4.57;;;2.15;;
42334;SDS011;27986;42.700;24.178;2022-10-17T01:44:41;2.78;;;1.17;;
42334;SDS011;27986;42.700;24.178;2022-10-17T01:47:12;4.63;;;1.92;;
42334;SDS011;27986;42.700;24.178;2022-10-17T01:49:44;7.63;;;1.75;;
42334;SDS011;27986;42.700;24.178;2022-10-17T01:52:18;3.70;;;1.92;;
42334;SDS011;27986;42.700;24.178;2022-10-17T01:54:52;2.35;;;1.33;;
42334;SDS011;27986;42.700;24.178;2022-10-17T01:57:29;2.92;;;1.50;;
42334;SDS011;27986;42.700;24.178;2022-10-17T01:59:59;4.55;;;1.95;;
42334;SDS011;27986;42.700;24.178;2022-10-17T02:02:27;4.10;;;1.67;;
42334;SDS011;27986;42.700;24.178;2022-10-17T02:04:53;4.10;;;1.77;;
42334;SDS011;27986;42.700;24.178;2022-10-17T02:07:21;2.70;;;1.38;;
42334;SDS011;27986;42.700;24.178;2022-10-17T02:09:46;2.42;;;1.35;;
42334;SDS011;27986;42.700;24.178;2022-10-17T02:17:21;3.83;;;1.50;;
42334;SDS011;27986;42.700;24.178;2022-10-17T02:20:39;3.20;;;1.63;;
42334;SDS011;27986;42.700;24.178;2022-10-17T02:23:05;3.10;;;2.15;;
42334;SDS011;27986;42.700;24.178;2022-10-17T02:29:19;3.85;;;1.83;;
42334;SDS011;27986;42.700;24.178;2022-10-17T02:31:58;1.92;;;1.33;;
42334;SDS011;27986;42.700;24.178;2022-10-17T02:34:37;3.28;;;1.52;;
42334;SDS011;27986;42.700;24.178;2022-10-17T02:37:08;2.47;;;1.55;;
42334;SDS011;27986;42.700;24.178;2022-10-17T02:39:36;3.30;;;1.45;;
42334;SDS011;27986;42.700;24.178;2022-10-17T02:42:05;3.13;;;1.20;;
42334;SDS011;27986;42.700;24.178;2022-10-17T02:44:33;4.22;;;1.10;;
42334;SDS011;27986;42.700;24.178;2022-10-17T02:47:15;5.60;;;1.70;;
42334;SDS011;27986;42.700;24.178;2022-10-17T02:49:51;3.55;;;1.50;;
42334;SDS011;27986;42.700;24.178;2022-10-17T02:52:21;9.45;;;4.97;;
42334;SDS011;27986;42.700;24.178;2022-10-17T02:57:39;4.47;;;1.75;;
42334;SDS011;27986;42.700;24.178;2022-10-17T03:00:09;7.40;;;4.00;;
42334;SDS011;27986;42.700;24.178;2022-10-17T03:02:38;13.30;;;5.25;;
42334;SDS011;27986;42.700;24.178;2022-10-17T03:05:04;6.50;;;2.80;;
42334;SDS011;27986;42.700;24.178;2022-10-17T03:07:29;6.28;;;1.70;;
42334;SDS011;27986;42.700;24.178;2022-10-17T03:09:55;6.38;;;2.53;;
42334;SDS011;27986;42.700;24.178;2022-10-17T03:12:20;15.35;;;5.05;;
42334;SDS011;27986;42.700;24.178;2022-10-17T03:14:46;8.95;;;3.80;;
42334;SDS011;27986;42.700;24.178;2022-10-17T03:17:11;3.47;;;1.58;;
42334;SDS011;27986;42.700;24.178;2022-10-17T03:19:36;3.55;;;2.15;;
42334;SDS011;27986;42.700;24.178;2022-10-17T03:22:02;3.55;;;1.67;;
42334;SDS011;27986;42.700;24.178;2022-10-17T03:24:27;2.92;;;1.55;;
42334;SDS011;27986;42.700;24.178;2022-10-17T03:26:53;4.70;;;1.63;;
42334;SDS011;27986;42.700;24.178;2022-10-17T03:29:18;3.47;;;1.83;;
42334;SDS011;27986;42.700;24.178;2022-10-17T03:31:43;3.38;;;2.33;;
42334;SDS011;27986;42.700;24.178;2022-10-17T03:34:09;3.92;;;1.95;;
42334;SDS011;27986;42.700;24.178;2022-10-17T03:36:34;7.53;;;3.60;;
42334;SDS011;27986;42.700;24.178;2022-10-17T03:39:00;5.72;;;3.47;;
42334;SDS011;27986;42.700;24.178;2022-10-17T03:41:25;6.93;;;2.33;;
42334;SDS011;27986;42.700;24.178;2022-10-17T03:43:51;3.65;;;2.20;;
42334;SDS011;27986;42.700;24.178;2022-10-17T03:46:18;5.97;;;2.90;;
42334;SDS011;27986;42.700;24.178;2022-10-17T03:48:43;7.55;;;3.80;;
42334;SDS011;27986;42.700;24.178;2022-10-17T03:51:09;6.28;;;2.45;;
42334;SDS011;27986;42.700;24.178;2022-10-17T03:53:35;6.05;;;3.78;;
42334;SDS011;27986;42.700;24.178;2022-10-17T03:56:07;11.02;;;3.50;;
42334;SDS011;27986;42.700;24.178;2022-10-17T03:58:40;5.68;;;3.13;;
42334;SDS011;27986;42.700;24.178;2022-10-17T04:01:07;6.75;;;3.35;;
42334;SDS011;27986;42.700;24.178;2022-10-17T04:03:34;9.82;;;4.00;;
42334;SDS011;27986;42.700;24.178;2022-10-17T04:06:00;9.60;;;3.47;;
42334;SDS011;27986;42.700;24.178;2022-10-17T04:08:27;11.15;;;3.95;;
42334;SDS011;27986;42.700;24.178;2022-10-17T04:10:57;8.68;;;3.85;;
42334;SDS011;27986;42.700;24.178;2022-10-17T04:13:30;6.55;;;2.75;;
42334;SDS011;27986;42.700;24.178;2022-10-17T04:15:59;2.78;;;1.00;;
42334;SDS011;27986;42.700;24.178;2022-10-17T04:18:27;5.35;;;2.17;;
42334;SDS011;27986;42.700;24.178;2022-10-17T04:20:52;27.48;;;9.73;;
42334;SDS011;27986;42.700;24.178;2022-10-17T04:23:18;24.85;;;9.45;;
42334;SDS011;27986;42.700;24.178;2022-10-17T04:25:44;25.00;;;9.00;;
42334;SDS011;27986;42.700;24.178;2022-10-17T04:28:10;31.65;;;11.57;;
42334;SDS011;27986;42.700;24.178;2022-10-17T04:30:36;49.63;;;17.63;;
42334;SDS011;27986;42.700;24.178;2022-10-17T04:33:01;34.65;;;13.52;;
42334;SDS011;27986;42.700;24.178;2022-10-17T04:35:27;19.50;;;6.28;;
42334;SDS011;27986;42.700;24.178;2022-10-17T04:37:52;16.35;;;5.80;;
42334;SDS011;27986;42.700;24.178;2022-10-17T04:40:18;13.65;;;5.60;;
42334;SDS011;27986;42.700;24.178;2022-10-17T04:42:43;5.38;;;2.45;;
42334;SDS011;27986;42.700;24.178;2022-10-17T04:45:09;5.60;;;2.47;;
42334;SDS011;27986;42.700;24.178;2022-10-17T04:47:34;3.63;;;1.85;;
42334;SDS011;27986;42.700;24.178;2022-10-17T04:50:00;4.80;;;1.98;;
42334;SDS011;27986;42.700;24.178;2022-10-17T04:52:27;2.70;;;1.40;;
42334;SDS011;27986;42.700;24.178;2022-10-17T04:54:52;9.75;;;1.98;;
42334;SDS011;27986;42.700;24.178;2022-10-17T04:57:18;5.00;;;2.15;;
42334;SDS011;27986;42.700;24.178;2022-10-17T04:59:44;4.63;;;1.80;;
42334;SDS011;27986;42.700;24.178;2022-10-17T05:02:10;3.33;;;1.77;;
42334;SDS011;27986;42.700;24.178;2022-10-17T05:04:35;8.68;;;3.63;;
42334;SDS011;27986;42.700;24.178;2022-10-17T05:07:07;5.43;;;3.15;;
42334;SDS011;27986;42.700;24.178;2022-10-17T05:09:32;12.83;;;5.47;;
42334;SDS011;27986;42.700;24.178;2022-10-17T05:11:57;9.70;;;4.30;;
42334;SDS011;27986;42.700;24.178;2022-10-17T05:14:23;16.90;;;7.93;;
42334;SDS011;27986;42.700;24.178;2022-10-17T05:16:48;44.13;;;18.30;;
42334;SDS011;27986;42.700;24.178;2022-10-17T05:19:14;41.38;;;17.05;;
42334;SDS011;27986;42.700;24.178;2022-10-17T05:21:42;124.63;;;36.33;;
42334;SDS011;27986;42.700;24.178;2022-10-17T05:24:08;65.13;;;23.35;;
42334;SDS011;27986;42.700;24.178;2022-10-17T05:26:37;19.10;;;8.90;;
42334;SDS011;27986;42.700;24.178;2022-10-17T05:29:02;29.08;;;14.18;;
42334;SDS011;27986;42.700;24.178;2022-10-17T05:31:28;24.52;;;13.23;;
42334;SDS011;27986;42.700;24.178;2022-10-17T05:33:55;11.90;;;5.60;;
42334;SDS011;27986;42.700;24.178;2022-10-17T05:36:24;7.88;;;2.88;;
42334;SDS011;27986;42.700;24.178;2022-10-17T05:38:50;5.13;;;2.88;;
42334;SDS011;27986;42.700;24.178;2022-10-17T05:41:16;7.90;;;3.97;;
42334;SDS011;27986;42.700;24.178;2022-10-17T05:43:43;15.07;;;5.38;;
42334;SDS011;27986;42.700;24.178;2022-10-17T05:46:09;9.18;;;4.65;;
42334;SDS011;27986;42.700;24.178;2022-10-17T05:48:35;6.35;;;3.60;;
42334;SDS011;27986;42.700;24.178;2022-10-17T05:51:01;11.40;;;4.40;;
42334;SDS011;27986;42.700;24.178;2022-10-17T05:53:29;6.38;;;3.22;;
42334;SDS011;27986;42.700;24.178;2022-10-17T05:55:56;8.52;;;3.67;;
42334;SDS011;27986;42.700;24.178;2022-10-17T05:58:23;6.10;;;2.85;;
42334;SDS011;27986;42.700;24.178;2022-10-17T06:00:49;15.30;;;3.38;;
42334;SDS011;27986;42.700;24.178;2022-10-17T06:03:14;4.47;;;2.00;;
42334;SDS011;27986;42.700;24.178;2022-10-17T06:05:40;4.60;;;1.90;;
42334;SDS011;27986;42.700;24.178;2022-10-17T06:08:05;7.15;;;3.35;;
42334;SDS011;27986;42.700;24.178;2022-10-17T06:10:30;8.02;;;4.13;;
42334;SDS011;27986;42.700;24.178;2022-10-17T06:12:56;6.85;;;4.03;;
42334;SDS011;27986;42.700;24.178;2022-10-17T06:15:21;10.77;;;4.03;;
42334;SDS011;27986;42.700;24.178;2022-10-17T06:17:47;5.20;;;3.03;;
42334;SDS011;27986;42.700;24.178;2022-10-17T06:20:12;4.40;;;2.80;;
42334;SDS011;27986;42.700;24.178;2022-10-17T06:22:38;5.88;;;2.63;;
42334;SDS011;27986;42.700;24.178;2022-10-17T06:25:03;10.10;;;2.42;;
42334;SDS011;27986;42.700;24.178;2022-10-17T06:27:29;8.65;;;2.70;;
42334;SDS011;27986;42.700;24.178;2022-10-17T06:29:54;7.07;;;3.08;;
42334;SDS011;27986;42.700;24.178;2022-10-17T06:32:20;5.43;;;3.00;;
42334;SDS011;27986;42.700;24.178;2022-10-17T06:34:45;4.25;;;2.00;;
42334;SDS011;27986;42.700;24.178;2022-10-17T06:37:10;4.20;;;2.40;;
42334;SDS011;27986;42.700;24.178;2022-10-17T06:39:36;7.28;;;3.13;;
42334;SDS011;27986;42.700;24.178;2022-10-17T06:42:02;7.05;;;3.53;;
42334;SDS011;27986;42.700;24.178;2022-10-17T06:44:28;10.25;;;4.07;;
42334;SDS011;27986;42.700;24.178;2022-10-17T06:46:56;8.20;;;3.78;;
42334;SDS011;27986;42.700;24.178;2022-10-17T06:49:22;7.82;;;3.83;;
42334;SDS011;27986;42.700;24.178;2022-10-17T06:51:48;11.32;;;3.20;;
42334;SDS011;27986;42.700;24.178;2022-10-17T06:54:14;6.57;;;3.28;;
42334;SDS011;27986;42.700;24.178;2022-10-17T06:56:39;8.95;;;3.15;;
42334;SDS011;27986;42.700;24.178;2022-10-17T06:59:05;7.03;;;3.15;;
42334;SDS011;27986;42.700;24.178;2022-10-17T07:01:30;5.95;;;3.05;;
42334;SDS011;27986;42.700;24.178;2022-10-17T07:03:56;10.32;;;3.97;;
42334;SDS011;27986;42.700;24.178;2022-10-17T07:06:21;14.18;;;6.25;;
42334;SDS011;27986;42.700;24.178;2022-10-17T07:08:50;18.38;;;7.10;;
42334;SDS011;27986;42.700;24.178;2022-10-17T07:11:19;10.82;;;4.95;;
42334;SDS011;27986;42.700;24.178;2022-10-17T07:13:46;9.50;;;5.05;;
42334;SDS011;27986;42.700;24.178;2022-10-17T07:16:12;11.80;;;4.65;;
42334;SDS011;27986;42.700;24.178;2022-10-17T07:18:39;18.25;;;6.20;;
42334;SDS011;27986;42.700;24.178;2022-10-17T07:21:05;61.00;;;24.63;;
42334;SDS011;27986;42.700;24.178;2022-10-17T07:23:32;102.32;;;42.65;;
42334;SDS011;27986;42.700;24.178;2022-10-17T07:26:01;71.70;;;33.08;;
42334;SDS011;27986;42.700;24.178;2022-10-17T07:28:31;27.20;;;11.68;;
42334;SDS011;27986;42.700;24.178;2022-10-17T07:31:01;18.85;;;8.93;;
42334;SDS011;27986;42.700;24.178;2022-10-17T07:33:34;22.15;;;11.13;;
42334;SDS011;27986;42.700;24.178;2022-10-17T07:36:00;18.70;;;9.02;;
42334;SDS011;27986;42.700;24.178;2022-10-17T07:38:27;15.10;;;7.30;;
42334;SDS011;27986;42.700;24.178;2022-10-17T07:40:56;26.90;;;8.77;;
42334;SDS011;27986;42.700;24.178;2022-10-17T07:45:50;5.72;;;2.53;;
42334;SDS011;27986;42.700;24.178;2022-10-17T07:48:16;5.47;;;1.90;;
42334;SDS011;27986;42.700;24.178;2022-10-17T07:50:42;15.63;;;3.13;;
42334;SDS011;27986;42.700;24.178;2022-10-17T07:53:08;6.00;;;2.65;;
42334;SDS011;27986;42.700;24.178;2022-10-17T07:55:35;5.57;;;3.05;;
42334;SDS011;27986;42.700;24.178;2022-10-17T07:58:01;5.95;;;2.47;;
42334;SDS011;27986;42.700;24.178;2022-10-17T08:00:26;7.25;;;3.53;;
42334;SDS011;27986;42.700;24.178;2022-10-17T08:02:52;4.10;;;2.30;;
42334;SDS011;27986;42.700;24.178;2022-10-17T08:05:17;5.78;;;2.65;;
42334;SDS011;27986;42.700;24.178;2022-10-17T08:07:43;10.02;;;2.63;;
42334;SDS011;27986;42.700;24.178;2022-10-17T08:10:10;16.17;;;3.67;;
42334;SDS011;27986;42.700;24.178;2022-10-17T08:12:38;11.98;;;2.95;;
42334;SDS011;27986;42.700;24.178;2022-10-17T08:15:04;5.82;;;2.90;;
42334;SDS011;27986;42.700;24.178;2022-10-17T08:17:33;7.80;;;2.60;;
42334;SDS011;27986;42.700;24.178;2022-10-17T08:19:59;11.00;;;2.45;;
42334;SDS011;27986;42.700;24.178;2022-10-17T08:22:24;10.30;;;4.03;;
42334;SDS011;27986;42.700;24.178;2022-10-17T08:24:50;4.32;;;1.80;;
42334;SDS011;27986;42.700;24.178;2022-10-17T08:27:15;3.95;;;1.50;;
42334;SDS011;27986;42.700;24.178;2022-10-17T08:29:47;5.00;;;2.13;;
42334;SDS011;27986;42.700;24.178;2022-10-17T08:32:16;4.57;;;2.10;;
42334;SDS011;27986;42.700;24.178;2022-10-17T08:34:44;6.00;;;1.63;;
42334;SDS011;27986;42.700;24.178;2022-10-17T08:37:09;2.92;;;1.58;;
42334;SDS011;27986;42.700;24.178;2022-10-17T08:39:37;3.95;;;1.67;;
42334;SDS011;27986;42.700;24.178;2022-10-17T08:47:59;9.35;;;1.00;;
42334;SDS011;27986;42.700;24.178;2022-10-17T08:50:31;4.20;;;1.48;;
42334;SDS011;27986;42.700;24.178;2022-10-17T08:55:41;2.80;;;0.88;;
42334;SDS011;27986;42.700;24.178;2022-10-17T08:58:18;2.00;;;0.70;;
42334;SDS011;27986;42.700;24.178;2022-10-17T09:01:00;1.63;;;0.70;;
42334;SDS011;27986;42.700;24.178;2022-10-17T09:03:31;1.63;;;0.88;;
42334;SDS011;27986;42.700;24.178;2022-10-17T09:06:18;2.55;;;0.80;;
42334;SDS011;27986;42.700;24.178;2022-10-17T09:08:57;1.52;;;0.75;;
42334;SDS011;27986;42.700;24.178;2022-10-17T09:20:17;1.98;;;0.88;;
42334;SDS011;27986;42.700;24.178;2022-10-17T09:23:10;2.35;;;1.10;;
42334;SDS011;27986;42.700;24.178;2022-10-17T09:25:41;4.13;;;1.00;;
42334;SDS011;27986;42.700;24.178;2022-10-17T09:28:11;1.80;;;0.98;;
42334;SDS011;27986;42.700;24.178;2022-10-17T09:33:09;23.02;;;11.35;;
42334;SDS011;27986;42.700;24.178;2022-10-17T09:35:46;53.83;;;26.92;;
42334;SDS011;27986;42.700;24.178;2022-10-17T09:38:14;10.30;;;5.38;;
42334;SDS011;27986;42.700;24.178;2022-10-17T09:40:56;15.23;;;6.97;;
42334;SDS011;27986;42.700;24.178;2022-10-17T09:43:27;2.20;;;1.08;;
42334;SDS011;27986;42.700;24.178;2022-10-17T09:48:23;3.50;;;1.38;;
42334;SDS011;27986;42.700;24.178;2022-10-17T09:50:52;4.10;;;1.30;;
42334;SDS011;27986;42.700;24.178;2022-10-17T09:53:26;3.20;;;1.60;;
42334;SDS011;27986;42.700;24.178;2022-10-17T09:55:59;3.22;;;1.02;;
42334;SDS011;27986;42.700;24.178;2022-10-17T09:58:40;3.10;;;1.23;;
42334;SDS011;27986;42.700;24.178;2022-10-17T10:03:46;4.30;;;1.20;;
42334;SDS011;27986;42.700;24.178;2022-10-17T10:06:13;1.88;;;1.08;;
42334;SDS011;27986;42.700;24.178;2022-10-17T10:08:51;3.40;;;0.82;;
42334;SDS011;27986;42.700;24.178;2022-10-17T10:11:22;8.13;;;1.73;;
42334;SDS011;27986;42.700;24.178;2022-10-17T10:13:49;1.83;;;0.90;;
42334;SDS011;27986;42.700;24.178;2022-10-17T10:18:40;13.63;;;6.78;;
42334;SDS011;27986;42.700;24.178;2022-10-17T10:23:43;41.75;;;18.85;;
42334;SDS011;27986;42.700;24.178;2022-10-17T10:26:26;3.45;;;2.17;;
42334;SDS011;27986;42.700;24.178;2022-10-17T10:29:02;17.95;;;6.88;;
42334;SDS011;27986;42.700;24.178;2022-10-17T10:31:32;9.30;;;4.75;;
42334;SDS011;27986;42.700;24.178;2022-10-17T10:34:02;4.82;;;2.60;;
42334;SDS011;27986;42.700;24.178;2022-10-17T10:36:42;14.60;;;7.05;;
42334;SDS011;27986;42.700;24.178;2022-10-17T10:41:56;8.52;;;4.20;;
42334;SDS011;27986;42.700;24.178;2022-10-17T10:44:23;6.40;;;3.03;;
42334;SDS011;27986;42.700;24.178;2022-10-17T10:49:38;2.63;;;1.38;;
42334;SDS011;27986;42.700;24.178;2022-10-17T10:52:03;5.43;;;2.40;;
42334;SDS011;27986;42.700;24.178;2022-10-17T10:54:35;6.53;;;2.95;;
42334;SDS011;27986;42.700;24.178;2022-10-17T11:05:02;1.33;;;0.70;;
42334;SDS011;27986;42.700;24.178;2022-10-17T11:13:12;14.70;;;7.22;;
42334;SDS011;27986;42.700;24.178;2022-10-17T11:15:52;7.80;;;3.97;;
42334;SDS011;27986;42.700;24.178;2022-10-17T11:23:23;8.85;;;3.63;;
42334;SDS011;27986;42.700;24.178;2022-10-17T11:25:58;2.17;;;0.55;;
42334;SDS011;27986;42.700;24.178;2022-10-17T11:28:29;7.90;;;3.42;;
42334;SDS011;27986;42.700;24.178;2022-10-17T11:33:25;3.75;;;1.73;;
42334;SDS011;27986;42.700;24.178;2022-10-17T11:40:56;3.22;;;1.15;;
42334;SDS011;27986;42.700;24.178;2022-10-17T11:46:09;5.28;;;1.45;;
42334;SDS011;27986;42.700;24.178;2022-10-17T11:48:38;15.02;;;7.10;;
42334;SDS011;27986;42.700;24.178;2022-10-17T11:51:12;5.40;;;1.65;;
42334;SDS011;27986;42.700;24.178;2022-10-17T11:56:33;2.53;;;0.80;;
42334;SDS011;27986;42.700;24.178;2022-10-17T12:02:12;2.75;;;1.05;;
42334;SDS011;27986;42.700;24.178;2022-10-17T12:04:56;1.83;;;0.88;;
42334;SDS011;27986;42.700;24.178;2022-10-17T12:10:23;4.65;;;0.82;;
42334;SDS011;27986;42.700;24.178;2022-10-17T12:12:53;1.65;;;0.47;;
42334;SDS011;27986;42.700;24.178;2022-10-17T12:17:45;1.15;;;0.55;;
42334;SDS011;27986;42.700;24.178;2022-10-17T12:22:48;1.48;;;0.70;;
42334;SDS011;27986;42.700;24.178;2022-10-17T12:25:22;2.57;;;0.90;;
42334;SDS011;27986;42.700;24.178;2022-10-17T12:30:35;2.08;;;0.82;;
42334;SDS011;27986;42.700;24.178;2022-10-17T12:35:50;2.20;;;0.98;;
42334;SDS011;27986;42.700;24.178;2022-10-17T12:38:42;2.20;;;0.77;;
42334;SDS011;27986;42.700;24.178;2022-10-17T12:41:08;1.73;;;0.52;;
42334;SDS011;27986;42.700;24.178;2022-10-17T12:43:38;6.78;;;0.90;;
42334;SDS011;27986;42.700;24.178;2022-10-17T12:46:07;1.73;;;0.80;;
42334;SDS011;27986;42.700;24.178;2022-10-17T12:53:48;6.65;;;0.82;;
42334;SDS011;27986;42.700;24.178;2022-10-17T12:56:54;12.60;;;6.43;;
42334;SDS011;27986;42.700;24.178;2022-10-17T12:59:25;3.58;;;1.10;;
42334;SDS011;27986;42.700;24.178;2022-10-17T13:01:55;11.65;;;2.15;;
42334;SDS011;27986;42.700;24.178;2022-10-17T13:04:23;21.10;;;9.23;;
42334;SDS011;27986;42.700;24.178;2022-10-17T13:06:52;30.90;;;14.00;;
42334;SDS011;27986;42.700;24.178;2022-10-17T13:11:58;10.60;;;4.90;;
42334;SDS011;27986;42.700;24.178;2022-10-17T13:14:26;17.52;;;8.95;;
42334;SDS011;27986;42.700;24.178;2022-10-17T13:17:00;14.52;;;6.38;;
42334;SDS011;27986;42.700;24.178;2022-10-17T13:19:29;37.17;;;18.38;;
42334;SDS011;27986;42.700;24.178;2022-10-17T13:21:57;4.90;;;2.58;;
42334;SDS011;27986;42.700;24.178;2022-10-17T13:26:58;2.35;;;1.17;;
42334;SDS011;27986;42.700;24.178;2022-10-17T13:29:24;2.88;;;1.45;;
42334;SDS011;27986;42.700;24.178;2022-10-17T13:31:53;4.40;;;2.47;;
42334;SDS011;27986;42.700;24.178;2022-10-17T13:34:22;3.83;;;1.75;;
42334;SDS011;27986;42.700;24.178;2022-10-17T13:36:51;5.75;;;2.95;;
42334;SDS011;27986;42.700;24.178;2022-10-17T13:39:26;2.60;;;1.17;;
42334;SDS011;27986;42.700;24.178;2022-10-17T13:41:55;3.03;;;1.75;;
42334;SDS011;27986;42.700;24.178;2022-10-17T13:44:22;2.08;;;1.02;;
42334;SDS011;27986;42.700;24.178;2022-10-17T13:46:49;2.65;;;1.10;;
42334;SDS011;27986;42.700;24.178;2022-10-17T13:49:26;2.25;;;0.93;;
42334;SDS011;27986;42.700;24.178;2022-10-17T13:51:54;2.58;;;1.27;;
42334;SDS011;27986;42.700;24.178;2022-10-17T13:57:13;8.52;;;1.42;;
42334;SDS011;27986;42.700;24.178;2022-10-17T13:59:46;2.55;;;1.10;;
42334;SDS011;27986;42.700;24.178;2022-10-17T14:02:27;3.78;;;1.38;;
42334;SDS011;27986;42.700;24.178;2022-10-17T14:05:01;9.77;;;1.70;;
42334;SDS011;27986;42.700;24.178;2022-10-17T14:07:37;1.73;;;0.73;;
42334;SDS011;27986;42.700;24.178;2022-10-17T14:12:58;3.80;;;1.48;;
42334;SDS011;27986;42.700;24.178;2022-10-17T14:15:29;2.47;;;1.02;;
42334;SDS011;27986;42.700;24.178;2022-10-17T14:17:59;4.97;;;1.88;;
42334;SDS011;27986;42.700;24.178;2022-10-17T14:20:27;3.30;;;1.20;;
42334;SDS011;27986;42.700;24.178;2022-10-17T14:22:54;3.58;;;1.15;;
42334;SDS011;27986;42.700;24.178;2022-10-17T14:25:36;2.90;;;1.42;;
42334;SDS011;27986;42.700;24.178;2022-10-17T14:30:35;4.07;;;1.30;;
42334;SDS011;27986;42.700;24.178;2022-10-17T14:33:04;3.30;;;1.33;;
42334;SDS011;27986;42.700;24.178;2022-10-17T14:35:32;6.13;;;1.60;;
42334;SDS011;27986;42.700;24.178;2022-10-17T14:38:02;2.78;;;1.38;;
42334;SDS011;27986;42.700;24.178;2022-10-17T14:40:30;3.35;;;1.67;;
42334;SDS011;27986;42.700;24.178;2022-10-17T14:42:57;3.42;;;1.30;;
42334;SDS011;27986;42.700;24.178;2022-10-17T14:45:33;8.15;;;1.13;;
42334;SDS011;27986;42.700;24.178;2022-10-17T14:48:06;9.27;;;1.80;;
42334;SDS011;27986;42.700;24.178;2022-10-17T14:50:36;2.75;;;1.40;;
42334;SDS011;27986;42.700;24.178;2022-10-17T14:55:52;4.05;;;1.85;;
42334;SDS011;27986;42.700;24.178;2022-10-17T14:58:26;4.20;;;1.75;;
42334;SDS011;27986;42.700;24.178;2022-10-17T15:00:53;4.50;;;1.70;;
42334;SDS011;27986;42.700;24.178;2022-10-17T15:03:20;2.00;;;1.15;;
42334;SDS011;27986;42.700;24.178;2022-10-17T15:05:46;2.83;;;1.33;;
42334;SDS011;27986;42.700;24.178;2022-10-17T15:08:13;3.33;;;1.23;;
42334;SDS011;27986;42.700;24.178;2022-10-17T15:10:40;3.80;;;1.65;;
42334;SDS011;27986;42.700;24.178;2022-10-17T15:13:07;4.97;;;1.70;;
42334;SDS011;27986;42.700;24.178;2022-10-17T15:15:33;28.77;;;11.00;;
42334;SDS011;27986;42.700;24.178;2022-10-17T15:17:59;33.15;;;14.70;;
42334;SDS011;27986;42.700;24.178;2022-10-17T15:20:26;31.35;;;15.20;;
42334;SDS011;27986;42.700;24.178;2022-10-17T15:22:54;27.10;;;7.32;;
42334;SDS011;27986;42.700;24.178;2022-10-17T15:25:21;19.25;;;6.28;;
42334;SDS011;27986;42.700;24.178;2022-10-17T15:27:48;8.75;;;2.90;;
42334;SDS011;27986;42.700;24.178;2022-10-17T15:30:18;8.85;;;1.98;;
42334;SDS011;27986;42.700;24.178;2022-10-17T15:32:49;2.90;;;1.42;;
42334;SDS011;27986;42.700;24.178;2022-10-17T15:35:16;3.72;;;1.67;;
42334;SDS011;27986;42.700;24.178;2022-10-17T15:37:42;5.72;;;1.48;;
42334;SDS011;27986;42.700;24.178;2022-10-17T15:40:12;4.93;;;1.45;;
42334;SDS011;27986;42.700;24.178;2022-10-17T15:42:56;7.10;;;3.05;;
42334;SDS011;27986;42.700;24.178;2022-10-17T15:45:22;3.63;;;1.90;;
42334;SDS011;27986;42.700;24.178;2022-10-17T15:47:51;10.73;;;3.08;;
42334;SDS011;27986;42.700;24.178;2022-10-17T15:50:20;4.22;;;2.28;;
42334;SDS011;27986;42.700;24.178;2022-10-17T15:52:46;14.05;;;2.40;;
42334;SDS011;27986;42.700;24.178;2022-10-17T15:55:13;6.10;;;1.65;;
42334;SDS011;27986;42.700;24.178;2022-10-17T15:57:39;3.08;;;1.48;;
42334;SDS011;27986;42.700;24.178;2022-10-17T16:00:10;6.45;;;2.78;;
42334;SDS011;27986;42.700;24.178;2022-10-17T16:02:40;5.32;;;2.25;;
42334;SDS011;27986;42.700;24.178;2022-10-17T16:05:12;7.00;;;2.47;;
42334;SDS011;27986;42.700;24.178;2022-10-17T16:07:40;10.68;;;4.15;;
42334;SDS011;27986;42.700;24.178;2022-10-17T16:10:07;11.05;;;2.90;;
42334;SDS011;27986;42.700;24.178;2022-10-17T16:12:34;11.30;;;3.63;;
42334;SDS011;27986;42.700;24.178;2022-10-17T16:15:05;27.90;;;8.60;;
42334;SDS011;27986;42.700;24.178;2022-10-17T16:17:36;36.33;;;14.18;;
42334;SDS011;27986;42.700;24.178;2022-10-17T16:20:02;28.85;;;13.00;;
42334;SDS011;27986;42.700;24.178;2022-10-17T16:22:31;31.20;;;13.10;;
42334;SDS011;27986;42.700;24.178;2022-10-17T16:25:04;31.80;;;13.93;;
42334;SDS011;27986;42.700;24.178;2022-10-17T16:27:34;35.47;;;13.80;;
42334;SDS011;27986;42.700;24.178;2022-10-17T16:30:00;33.53;;;14.30;;
42334;SDS011;27986;42.700;24.178;2022-10-17T16:32:26;22.98;;;10.77;;
42334;SDS011;27986;42.700;24.178;2022-10-17T16:34:51;13.80;;;5.75;;
42334;SDS011;27986;42.700;24.178;2022-10-17T16:37:17;7.88;;;4.15;;
42334;SDS011;27986;42.700;24.178;2022-10-17T16:39:42;14.05;;;3.20;;
42334;SDS011;27986;42.700;24.178;2022-10-17T16:42:12;9.05;;;3.05;;
42334;SDS011;27986;42.700;24.178;2022-10-17T16:44:38;9.27;;;3.05;;
42334;SDS011;27986;42.700;24.178;2022-10-17T16:47:03;9.18;;;4.18;;
42334;SDS011;27986;42.700;24.178;2022-10-17T16:49:29;9.98;;;5.13;;
42334;SDS011;27986;42.700;24.178;2022-10-17T16:51:54;12.88;;;5.50;;
42334;SDS011;27986;42.700;24.178;2022-10-17T16:54:20;7.88;;;3.40;;
42334;SDS011;27986;42.700;24.178;2022-10-17T16:56:45;6.80;;;2.88;;
42334;SDS011;27986;42.700;24.178;2022-10-17T16:59:10;11.63;;;5.32;;